sensor_id;sensor_type;location;lat;lon;timestamp;temperature;humidity
10149;DHT22;5115;50.920;6.376;2022-12-18T00:01:19;-3.00;99.90
10149;DHT22;5115;50.920;6.376;2022-12-18T00:03:45;-3.00;99.90
10149;DHT22;5115;50.920;6.376;2022-12-18T00:06:11;-3.00;99.90
10149;DHT22;5115;50.920;6.376;2022-12-18T00:08:37;-3.00;99.90
10149;DHT22;5115;50.920;6.376;2022-12-18T00:11:07;-3.10;99.90
10149;DHT22;5115;50.920;6.376;2022-12-18T00:13:33;-3.20;99.90
10149;DHT22;5115;50.920;6.376;2022-12-18T00:16:03;-3.20;99.90
10149;DHT22;5115;50.920;6.376;2022-12-18T00:18:30;-3.30;99.90
10149;DHT22;5115;50.920;6.376;2022-12-18T00:20:59;-3.20;99.90
10149;DHT22;5115;50.920;6.376;2022-12-18T00:23:25;-3.10;99.90
10149;DHT22;5115;50.920;6.376;2022-12-18T00:25:51;-3.10;99.90
10149;DHT22;5115;50.920;6.376;2022-12-18T00:28:17;-3.10;99.90
10149;DHT22;5115;50.920;6.376;2022-12-18T00:30:43;-3.00;99.90
10149;DHT22;5115;50.920;6.376;2022-12-18T00:33:08;-3.00;99.90
10149;DHT22;5115;50.920;6.376;2022-12-18T00:35:34;-3.00;99.90
10149;DHT22;5115;50.920;6.376;2022-12-18T00:37:59;-3.00;99.90
10149;DHT22;5115;50.920;6.376;2022-12-18T00:40:25;-3.00;99.90
10149;DHT22;5115;50.920;6.376;2022-12-18T00:42:50;-3.00;99.90
10149;DHT22;5115;50.920;6.376;2022-12-18T00:45:27;-3.00;99.90
10149;DHT22;5115;50.920;6.376;2022-12-18T00:47:53;-3.00;99.90
10149;DHT22;5115;50.920;6.376;2022-12-18T00:50:18;-3.00;99.90
10149;DHT22;5115;50.920;6.376;2022-12-18T00:52:44;-3.00;99.90
10149;DHT22;5115;50.920;6.376;2022-12-18T00:55:10;-3.10;99.90
10149;DHT22;5115;50.920;6.376;2022-12-18T00:57:36;-3.10;99.90
10149;DHT22;5115;50.920;6.376;2022-12-18T01:00:03;-3.10;99.90
10149;DHT22;5115;50.920;6.376;2022-12-18T01:02:29;-3.20;99.90
10149;DHT22;5115;50.920;6.376;2022-12-18T01:04:54;-3.20;99.90
10149;DHT22;5115;50.920;6.376;2022-12-18T01:07:20;-3.30;99.90
10149;DHT22;5115;50.920;6.376;2022-12-18T01:09:46;-3.20;99.90
10149;DHT22;5115;50.920;6.376;2022-12-18T01:12:11;-3.40;99.90
10149;DHT22;5115;50.920;6.376;2022-12-18T01:14:37;-3.40;99.90
10149;DHT22;5115;50.920;6.376;2022-12-18T01:17:03;-3.40;99.90
10149;DHT22;5115;50.920;6.376;2022-12-18T01:19:29;-3.40;99.90
10149;DHT22;5115;50.920;6.376;2022-12-18T01:21:55;-3.50;99.90
10149;DHT22;5115;50.920;6.376;2022-12-18T01:24:21;-3.40;99.90
10149;DHT22;5115;50.920;6.376;2022-12-18T01:26:47;-3.10;99.90
10149;DHT22;5115;50.920;6.376;2022-12-18T01:29:12;-3.30;99.90
10149;DHT22;5115;50.920;6.376;2022-12-18T01:31:38;-3.30;99.90
10149;DHT22;5115;50.920;6.376;2022-12-18T01:34:04;-3.30;99.90
10149;DHT22;5115;50.920;6.376;2022-12-18T01:36:33;-3.30;99.90
10149;DHT22;5115;50.920;6.376;2022-12-18T01:39:04;-3.40;99.90
10149;DHT22;5115;50.920;6.376;2022-12-18T01:41:31;-3.50;99.90
10149;DHT22;5115;50.920;6.376;2022-12-18T01:47:22;-3.90;99.90
10149;DHT22;5115;50.920;6.376;2022-12-18T01:49:48;-3.90;99.90
10149;DHT22;5115;50.920;6.376;2022-12-18T01:52:14;-3.70;99.90
10149;DHT22;5115;50.920;6.376;2022-12-18T01:54:40;-3.70;99.90
10149;DHT22;5115;50.920;6.376;2022-12-18T01:57:06;-3.70;99.90
10149;DHT22;5115;50.920;6.376;2022-12-18T01:59:33;-3.60;99.90
10149;DHT22;5115;50.920;6.376;2022-12-18T02:01:59;-2.10;99.90
10149;DHT22;5115;50.920;6.376;2022-12-18T02:04:27;-3.60;99.90
10149;DHT22;5115;50.920;6.376;2022-12-18T02:07:11;-3.60;99.90
10149;DHT22;5115;50.920;6.376;2022-12-18T02:09:48;-3.60;99.90
10149;DHT22;5115;50.920;6.376;2022-12-18T02:12:23;-3.60;99.90
10149;DHT22;5115;50.920;6.376;2022-12-18T02:15:02;-3.50;99.90
10149;DHT22;5115;50.920;6.376;2022-12-18T02:17:48;-3.50;99.90
10149;DHT22;5115;50.920;6.376;2022-12-18T02:20:24;-3.60;99.90
10149;DHT22;5115;50.920;6.376;2022-12-18T02:28:31;-3.60;99.90
10149;DHT22;5115;50.920;6.376;2022-12-18T02:31:00;-3.50;99.90
10149;DHT22;5115;50.920;6.376;2022-12-18T02:33:27;-3.60;99.90
10149;DHT22;5115;50.920;6.376;2022-12-18T02:35:55;-3.60;99.90
10149;DHT22;5115;50.920;6.376;2022-12-18T02:38:22;-3.50;99.90
10149;DHT22;5115;50.920;6.376;2022-12-18T02:40:49;-3.60;99.90
10149;DHT22;5115;50.920;6.376;2022-12-18T02:43:15;-3.60;99.90
10149;DHT22;5115;50.920;6.376;2022-12-18T02:45:56;-3.60;99.90
10149;DHT22;5115;50.920;6.376;2022-12-18T02:48:26;-3.70;99.90
10149;DHT22;5115;50.920;6.376;2022-12-18T02:51:24;-3.70;99.90
10149;DHT22;5115;50.920;6.376;2022-12-18T02:54:01;-3.70;99.90
10149;DHT22;5115;50.920;6.376;2022-12-18T02:56:41;-3.70;99.90
10149;DHT22;5115;50.920;6.376;2022-12-18T03:00:03;-3.90;99.90
10149;DHT22;5115;50.920;6.376;2022-12-18T03:02:43;-3.90;99.90
10149;DHT22;5115;50.920;6.376;2022-12-18T03:05:17;-4.00;99.90
10149;DHT22;5115;50.920;6.376;2022-12-18T03:07:49;-4.10;99.90
10149;DHT22;5115;50.920;6.376;2022-12-18T03:10:21;-4.10;99.90
10149;DHT22;5115;50.920;6.376;2022-12-18T03:13:14;-4.20;99.90
10149;DHT22;5115;50.920;6.376;2022-12-18T03:15:47;-4.20;99.90
10149;DHT22;5115;50.920;6.376;2022-12-18T03:18:24;-4.20;99.90
10149;DHT22;5115;50.920;6.376;2022-12-18T03:20:52;-4.10;99.90
10149;DHT22;5115;50.920;6.376;2022-12-18T03:23:27;-4.00;99.90
10149;DHT22;5115;50.920;6.376;2022-12-18T03:25:58;-3.90;99.90
10149;DHT22;5115;50.920;6.376;2022-12-18T03:28:27;-4.10;99.90
10149;DHT22;5115;50.920;6.376;2022-12-18T03:30:57;-4.10;99.90
10149;DHT22;5115;50.920;6.376;2022-12-18T03:33:37;-4.10;99.90
10149;DHT22;5115;50.920;6.376;2022-12-18T03:36:04;-4.20;99.90
10149;DHT22;5115;50.920;6.376;2022-12-18T03:38:30;-4.20;99.90
10149;DHT22;5115;50.920;6.376;2022-12-18T03:40:59;-4.10;99.90
10149;DHT22;5115;50.920;6.376;2022-12-18T03:43:45;-4.00;99.90
10149;DHT22;5115;50.920;6.376;2022-12-18T03:46:28;-4.00;99.90
10149;DHT22;5115;50.920;6.376;2022-12-18T03:52:02;-4.10;99.90
10149;DHT22;5115;50.920;6.376;2022-12-18T03:54:29;-4.10;99.90
10149;DHT22;5115;50.920;6.376;2022-12-18T03:57:01;-4.00;99.90
10149;DHT22;5115;50.920;6.376;2022-12-18T03:59:29;-4.20;99.90
10149;DHT22;5115;50.920;6.376;2022-12-18T04:01:56;-4.10;99.90
10149;DHT22;5115;50.920;6.376;2022-12-18T04:04:24;-3.90;99.90
10149;DHT22;5115;50.920;6.376;2022-12-18T04:06:51;-3.90;99.90
10149;DHT22;5115;50.920;6.376;2022-12-18T04:09:18;-3.90;99.90
10149;DHT22;5115;50.920;6.376;2022-12-18T04:11:44;-4.00;99.90
10149;DHT22;5115;50.920;6.376;2022-12-18T04:14:11;-4.10;99.90
10149;DHT22;5115;50.920;6.376;2022-12-18T04:16:36;-4.10;99.90
10149;DHT22;5115;50.920;6.376;2022-12-18T04:19:02;-4.10;99.90
10149;DHT22;5115;50.920;6.376;2022-12-18T04:21:28;-4.20;99.90
10149;DHT22;5115;50.920;6.376;2022-12-18T04:23:53;-4.30;99.90
10149;DHT22;5115;50.920;6.376;2022-12-18T04:26:19;-4.30;99.90
10149;DHT22;5115;50.920;6.376;2022-12-18T04:28:44;-4.20;99.90
10149;DHT22;5115;50.920;6.376;2022-12-18T04:31:10;-4.20;99.90
10149;DHT22;5115;50.920;6.376;2022-12-18T04:33:35;-4.20;99.90
10149;DHT22;5115;50.920;6.376;2022-12-18T04:36:01;-4.20;99.90
10149;DHT22;5115;50.920;6.376;2022-12-18T04:38:26;-4.20;99.90
10149;DHT22;5115;50.920;6.376;2022-12-18T04:40:52;-4.20;99.90
10149;DHT22;5115;50.920;6.376;2022-12-18T04:43:17;-4.40;99.90
10149;DHT22;5115;50.920;6.376;2022-12-18T04:45:43;-4.40;99.90
10149;DHT22;5115;50.920;6.376;2022-12-18T04:48:08;-4.30;99.90
10149;DHT22;5115;50.920;6.376;2022-12-18T04:50:34;-4.30;99.90
10149;DHT22;5115;50.920;6.376;2022-12-18T04:53:00;-4.00;99.90
10149;DHT22;5115;50.920;6.376;2022-12-18T04:55:26;-4.20;99.90
10149;DHT22;5115;50.920;6.376;2022-12-18T04:57:52;-4.20;99.90
10149;DHT22;5115;50.920;6.376;2022-12-18T05:00:17;-4.30;99.90
10149;DHT22;5115;50.920;6.376;2022-12-18T05:02:43;-4.40;99.90
10149;DHT22;5115;50.920;6.376;2022-12-18T05:05:09;-4.40;99.90
10149;DHT22;5115;50.920;6.376;2022-12-18T05:07:34;-4.40;99.90
10149;DHT22;5115;50.920;6.376;2022-12-18T05:10:00;-4.30;99.90
10149;DHT22;5115;50.920;6.376;2022-12-18T05:12:25;-5.30;99.90
10149;DHT22;5115;50.920;6.376;2022-12-18T05:14:51;-4.30;99.90
10149;DHT22;5115;50.920;6.376;2022-12-18T05:17:17;-4.30;99.90
10149;DHT22;5115;50.920;6.376;2022-12-18T05:19:42;-4.30;99.90
10149;DHT22;5115;50.920;6.376;2022-12-18T05:22:09;-4.20;99.90
10149;DHT22;5115;50.920;6.376;2022-12-18T05:24:34;-4.20;99.90
10149;DHT22;5115;50.920;6.376;2022-12-18T05:27:00;-4.20;99.90
10149;DHT22;5115;50.920;6.376;2022-12-18T05:29:25;-4.20;99.90
10149;DHT22;5115;50.920;6.376;2022-12-18T05:31:51;-4.20;99.90
10149;DHT22;5115;50.920;6.376;2022-12-18T05:34:16;-4.10;99.90
10149;DHT22;5115;50.920;6.376;2022-12-18T05:36:42;-4.30;99.90
10149;DHT22;5115;50.920;6.376;2022-12-18T05:39:08;-4.30;99.90
10149;DHT22;5115;50.920;6.376;2022-12-18T05:41:33;-4.20;99.90
10149;DHT22;5115;50.920;6.376;2022-12-18T05:43:59;-4.20;99.90
10149;DHT22;5115;50.920;6.376;2022-12-18T05:46:25;-4.20;99.90
10149;DHT22;5115;50.920;6.376;2022-12-18T05:48:51;-4.10;99.90
10149;DHT22;5115;50.920;6.376;2022-12-18T05:51:19;-4.10;99.90
10149;DHT22;5115;50.920;6.376;2022-12-18T05:53:45;-4.10;99.90
10149;DHT22;5115;50.920;6.376;2022-12-18T05:56:17;-4.00;99.90
10149;DHT22;5115;50.920;6.376;2022-12-18T05:58:43;-4.00;99.90
10149;DHT22;5115;50.920;6.376;2022-12-18T06:01:20;-4.00;99.90
10149;DHT22;5115;50.920;6.376;2022-12-18T06:03:45;-3.90;99.90
10149;DHT22;5115;50.920;6.376;2022-12-18T06:06:25;-4.20;99.90
10149;DHT22;5115;50.920;6.376;2022-12-18T06:08:52;-4.10;99.90
10149;DHT22;5115;50.920;6.376;2022-12-18T06:11:20;-4.20;99.90
10149;DHT22;5115;50.920;6.376;2022-12-18T06:13:46;-4.30;99.90
10149;DHT22;5115;50.920;6.376;2022-12-18T06:16:12;-4.20;99.90
10149;DHT22;5115;50.920;6.376;2022-12-18T06:18:38;-4.20;99.90
10149;DHT22;5115;50.920;6.376;2022-12-18T06:21:04;-4.20;99.90
10149;DHT22;5115;50.920;6.376;2022-12-18T06:23:29;-4.20;99.90
10149;DHT22;5115;50.920;6.376;2022-12-18T06:25:55;-4.20;99.90
10149;DHT22;5115;50.920;6.376;2022-12-18T06:28:21;-4.20;99.90
10149;DHT22;5115;50.920;6.376;2022-12-18T06:30:47;-4.20;99.90
10149;DHT22;5115;50.920;6.376;2022-12-18T06:33:14;-4.30;99.90
10149;DHT22;5115;50.920;6.376;2022-12-18T06:35:40;-4.30;99.90
10149;DHT22;5115;50.920;6.376;2022-12-18T06:38:06;-4.20;99.90
10149;DHT22;5115;50.920;6.376;2022-12-18T06:40:31;-4.20;99.90
10149;DHT22;5115;50.920;6.376;2022-12-18T06:42:57;-4.10;99.90
10149;DHT22;5115;50.920;6.376;2022-12-18T06:45:23;-4.10;99.90
10149;DHT22;5115;50.920;6.376;2022-12-18T06:47:49;-4.10;99.90
10149;DHT22;5115;50.920;6.376;2022-12-18T06:50:15;-4.10;99.90
10149;DHT22;5115;50.920;6.376;2022-12-18T06:52:40;-4.10;99.90
10149;DHT22;5115;50.920;6.376;2022-12-18T06:55:08;-4.10;99.90
10149;DHT22;5115;50.920;6.376;2022-12-18T06:57:33;-4.20;99.90
10149;DHT22;5115;50.920;6.376;2022-12-18T06:59:59;-4.10;99.90
10149;DHT22;5115;50.920;6.376;2022-12-18T07:02:25;-4.10;99.90
10149;DHT22;5115;50.920;6.376;2022-12-18T07:04:50;-4.10;99.90
10149;DHT22;5115;50.920;6.376;2022-12-18T07:07:15;-4.10;99.90
10149;DHT22;5115;50.920;6.376;2022-12-18T07:09:41;-4.20;99.90
10149;DHT22;5115;50.920;6.376;2022-12-18T07:12:07;-4.00;99.90
10149;DHT22;5115;50.920;6.376;2022-12-18T07:14:33;-4.10;99.90
10149;DHT22;5115;50.920;6.376;2022-12-18T07:16:58;-4.00;99.90
10149;DHT22;5115;50.920;6.376;2022-12-18T07:19:24;-4.00;99.90
10149;DHT22;5115;50.920;6.376;2022-12-18T07:21:51;-3.90;99.90
10149;DHT22;5115;50.920;6.376;2022-12-18T07:24:16;-3.90;99.90
10149;DHT22;5115;50.920;6.376;2022-12-18T07:26:42;-3.80;99.90
10149;DHT22;5115;50.920;6.376;2022-12-18T07:29:08;-3.70;99.90
10149;DHT22;5115;50.920;6.376;2022-12-18T07:31:33;-3.90;99.90
10149;DHT22;5115;50.920;6.376;2022-12-18T07:33:59;-3.90;99.90
10149;DHT22;5115;50.920;6.376;2022-12-18T07:36:24;-3.90;99.90
10149;DHT22;5115;50.920;6.376;2022-12-18T07:38:50;-3.90;99.90
10149;DHT22;5115;50.920;6.376;2022-12-18T07:41:18;-3.90;99.90
10149;DHT22;5115;50.920;6.376;2022-12-18T07:43:44;-3.90;99.90
10149;DHT22;5115;50.920;6.376;2022-12-18T07:46:11;-4.00;99.90
10149;DHT22;5115;50.920;6.376;2022-12-18T07:48:41;-3.90;99.90
10149;DHT22;5115;50.920;6.376;2022-12-18T07:51:07;-3.90;99.90
10149;DHT22;5115;50.920;6.376;2022-12-18T07:53:34;-3.70;99.90
10149;DHT22;5115;50.920;6.376;2022-12-18T07:56:02;-3.80;99.90
10149;DHT22;5115;50.920;6.376;2022-12-18T07:58:32;-3.80;99.90
10149;DHT22;5115;50.920;6.376;2022-12-18T08:01:08;-3.70;99.90
10149;DHT22;5115;50.920;6.376;2022-12-18T08:03:35;-3.80;99.90
10149;DHT22;5115;50.920;6.376;2022-12-18T08:06:03;-3.70;99.90
10149;DHT22;5115;50.920;6.376;2022-12-18T08:08:29;-3.70;99.90
10149;DHT22;5115;50.920;6.376;2022-12-18T08:10:56;-3.60;99.90
10149;DHT22;5115;50.920;6.376;2022-12-18T08:13:22;-3.10;99.90
10149;DHT22;5115;50.920;6.376;2022-12-18T08:16:02;-3.10;99.90
10149;DHT22;5115;50.920;6.376;2022-12-18T08:18:28;-2.30;99.90
10149;DHT22;5115;50.920;6.376;2022-12-18T08:20:54;-1.60;99.90
10149;DHT22;5115;50.920;6.376;2022-12-18T08:23:20;-1.40;99.90
10149;DHT22;5115;50.920;6.376;2022-12-18T08:25:46;-1.40;99.90
10149;DHT22;5115;50.920;6.376;2022-12-18T08:28:12;-0.90;99.90
10149;DHT22;5115;50.920;6.376;2022-12-18T08:30:37;-1.00;99.90
10149;DHT22;5115;50.920;6.376;2022-12-18T08:33:03;-1.30;99.90
10149;DHT22;5115;50.920;6.376;2022-12-18T08:35:29;-1.70;99.90
10149;DHT22;5115;50.920;6.376;2022-12-18T08:37:54;-1.80;99.90
10149;DHT22;5115;50.920;6.376;2022-12-18T08:40:20;-1.80;99.90
10149;DHT22;5115;50.920;6.376;2022-12-18T08:42:45;-1.50;99.90
10149;DHT22;5115;50.920;6.376;2022-12-18T08:45:29;-1.20;99.90
10149;DHT22;5115;50.920;6.376;2022-12-18T08:47:55;-0.70;99.90
10149;DHT22;5115;50.920;6.376;2022-12-18T08:50:21;-0.30;99.90
10149;DHT22;5115;50.920;6.376;2022-12-18T08:52:46;-0.50;99.90
10149;DHT22;5115;50.920;6.376;2022-12-18T08:55:12;0.00;99.90
10149;DHT22;5115;50.920;6.376;2022-12-18T08:57:37;0.90;99.90
10149;DHT22;5115;50.920;6.376;2022-12-18T09:00:04;0.50;99.90
10149;DHT22;5115;50.920;6.376;2022-12-18T09:02:30;1.00;99.90
10149;DHT22;5115;50.920;6.376;2022-12-18T09:04:55;1.00;99.90
10149;DHT22;5115;50.920;6.376;2022-12-18T09:07:21;1.00;99.90
10149;DHT22;5115;50.920;6.376;2022-12-18T09:09:46;0.80;99.90
10149;DHT22;5115;50.920;6.376;2022-12-18T09:12:12;0.50;99.90
10149;DHT22;5115;50.920;6.376;2022-12-18T09:14:37;1.30;99.90
10149;DHT22;5115;50.920;6.376;2022-12-18T09:17:03;0.70;99.90
10149;DHT22;5115;50.920;6.376;2022-12-18T09:19:28;0.80;99.90
10149;DHT22;5115;50.920;6.376;2022-12-18T09:21:54;1.40;99.90
10149;DHT22;5115;50.920;6.376;2022-12-18T09:24:19;2.30;99.90
10149;DHT22;5115;50.920;6.376;2022-12-18T09:26:45;2.40;99.90
10149;DHT22;5115;50.920;6.376;2022-12-18T09:29:10;2.60;99.90
10149;DHT22;5115;50.920;6.376;2022-12-18T09:31:36;1.30;99.90
10149;DHT22;5115;50.920;6.376;2022-12-18T09:34:03;1.20;99.90
10149;DHT22;5115;50.920;6.376;2022-12-18T09:36:31;1.00;99.90
10149;DHT22;5115;50.920;6.376;2022-12-18T09:38:57;0.90;99.90
10149;DHT22;5115;50.920;6.376;2022-12-18T09:41:43;0.10;99.90
10149;DHT22;5115;50.920;6.376;2022-12-18T09:44:32;-0.40;99.90
10149;DHT22;5115;50.920;6.376;2022-12-18T09:47:18;-0.10;99.90
10149;DHT22;5115;50.920;6.376;2022-12-18T09:49:47;-0.40;99.90
10149;DHT22;5115;50.920;6.376;2022-12-18T09:52:25;-0.40;99.90
10149;DHT22;5115;50.920;6.376;2022-12-18T09:55:01;-0.50;99.90
10149;DHT22;5115;50.920;6.376;2022-12-18T09:57:30;-0.10;99.90
10149;DHT22;5115;50.920;6.376;2022-12-18T10:00:15;0.00;99.90
10149;DHT22;5115;50.920;6.376;2022-12-18T10:02:41;0.00;99.90
10149;DHT22;5115;50.920;6.376;2022-12-18T10:05:11;0.40;99.90
10149;DHT22;5115;50.920;6.376;2022-12-18T10:07:53;0.40;99.90
10149;DHT22;5115;50.920;6.376;2022-12-18T10:13:31;1.10;99.90
10149;DHT22;5115;50.920;6.376;2022-12-18T10:16:07;1.90;99.90
10149;DHT22;5115;50.920;6.376;2022-12-18T10:21:21;2.40;99.90
10149;DHT22;5115;50.920;6.376;2022-12-18T10:23:57;2.60;99.90
10149;DHT22;5115;50.920;6.376;2022-12-18T10:26:25;2.10;99.90
10149;DHT22;5115;50.920;6.376;2022-12-18T10:28:51;1.40;99.90
10149;DHT22;5115;50.920;6.376;2022-12-18T10:31:22;1.40;99.90
10149;DHT22;5115;50.920;6.376;2022-12-18T10:33:48;1.00;99.90
10149;DHT22;5115;50.920;6.376;2022-12-18T10:36:14;1.10;99.90
10149;DHT22;5115;50.920;6.376;2022-12-18T10:38:40;1.00;99.90
10149;DHT22;5115;50.920;6.376;2022-12-18T10:43:42;0.70;99.90
10149;DHT22;5115;50.920;6.376;2022-12-18T10:51:05;0.30;99.90
10149;DHT22;5115;50.920;6.376;2022-12-18T10:53:34;0.40;99.90
10149;DHT22;5115;50.920;6.376;2022-12-18T10:55:59;0.40;99.90
10149;DHT22;5115;50.920;6.376;2022-12-18T10:58:34;0.50;99.90
10149;DHT22;5115;50.920;6.376;2022-12-18T11:01:04;0.60;99.90
10149;DHT22;5115;50.920;6.376;2022-12-18T11:03:34;0.50;99.90
10149;DHT22;5115;50.920;6.376;2022-12-18T11:06:10;0.30;99.90
10149;DHT22;5115;50.920;6.376;2022-12-18T11:08:35;0.50;99.90
10149;DHT22;5115;50.920;6.376;2022-12-18T11:11:02;0.20;99.90
10149;DHT22;5115;50.920;6.376;2022-12-18T11:13:29;0.20;99.90
10149;DHT22;5115;50.920;6.376;2022-12-18T11:15:55;0.20;99.90
10149;DHT22;5115;50.920;6.376;2022-12-18T11:21:06;-0.30;99.90
10149;DHT22;5115;50.920;6.376;2022-12-18T11:23:33;-0.20;99.90
10149;DHT22;5115;50.920;6.376;2022-12-18T11:26:01;-0.30;99.90
10149;DHT22;5115;50.920;6.376;2022-12-18T11:28:49;-0.40;99.90
10149;DHT22;5115;50.920;6.376;2022-12-18T11:31:20;-0.40;99.90
10149;DHT22;5115;50.920;6.376;2022-12-18T11:34:10;-0.30;99.90
10149;DHT22;5115;50.920;6.376;2022-12-18T11:36:45;-0.20;99.90
10149;DHT22;5115;50.920;6.376;2022-12-18T11:39:36;-0.20;99.90
10149;DHT22;5115;50.920;6.376;2022-12-18T11:42:41;-0.30;99.90
10149;DHT22;5115;50.920;6.376;2022-12-18T11:47:50;-0.20;99.90
10149;DHT22;5115;50.920;6.376;2022-12-18T11:50:20;-0.30;99.90
10149;DHT22;5115;50.920;6.376;2022-12-18T11:52:47;-0.40;99.90
10149;DHT22;5115;50.920;6.376;2022-12-18T12:00:45;-0.50;99.90
10149;DHT22;5115;50.920;6.376;2022-12-18T12:03:45;-0.30;99.90
10149;DHT22;5115;50.920;6.376;2022-12-18T12:06:24;-0.20;99.90
10149;DHT22;5115;50.920;6.376;2022-12-18T12:17:36;0.00;99.90
10149;DHT22;5115;50.920;6.376;2022-12-18T12:23:06;0.10;99.90
10149;DHT22;5115;50.920;6.376;2022-12-18T12:25:57;0.00;99.90
10149;DHT22;5115;50.920;6.376;2022-12-18T12:34:26;0.00;99.90
10149;DHT22;5115;50.920;6.376;2022-12-18T12:37:24;0.10;99.90
10149;DHT22;5115;50.920;6.376;2022-12-18T12:39:53;0.10;99.90
10149;DHT22;5115;50.920;6.376;2022-12-18T12:42:41;0.20;99.90
10149;DHT22;5115;50.920;6.376;2022-12-18T12:45:58;0.30;99.90
10149;DHT22;5115;50.920;6.376;2022-12-18T12:48:34;0.30;99.90
10149;DHT22;5115;50.920;6.376;2022-12-18T12:51:07;0.50;99.90
10149;DHT22;5115;50.920;6.376;2022-12-18T12:53:36;0.50;99.90
10149;DHT22;5115;50.920;6.376;2022-12-18T12:56:04;0.50;99.90
10149;DHT22;5115;50.920;6.376;2022-12-18T13:12:59;0.50;99.90
10149;DHT22;5115;50.920;6.376;2022-12-18T13:15:37;0.60;99.90
10149;DHT22;5115;50.920;6.376;2022-12-18T13:20:41;0.40;99.90
10149;DHT22;5115;50.920;6.376;2022-12-18T13:23:29;0.30;99.90
10149;DHT22;5115;50.920;6.376;2022-12-18T13:31:10;0.30;99.90
10149;DHT22;5115;50.920;6.376;2022-12-18T13:33:43;0.40;99.90
10149;DHT22;5115;50.920;6.376;2022-12-18T13:36:14;0.40;99.90
10149;DHT22;5115;50.920;6.376;2022-12-18T13:38:41;0.20;99.90
10149;DHT22;5115;50.920;6.376;2022-12-18T13:43:49;0.20;99.90
10149;DHT22;5115;50.920;6.376;2022-12-18T13:51:23;0.20;99.90
10149;DHT22;5115;50.920;6.376;2022-12-18T13:53:52;0.00;99.90
10149;DHT22;5115;50.920;6.376;2022-12-18T13:56:33;-0.10;99.90
10149;DHT22;5115;50.920;6.376;2022-12-18T13:59:23;0.00;99.90
10149;DHT22;5115;50.920;6.376;2022-12-18T14:04:24;0.00;99.90
10149;DHT22;5115;50.920;6.376;2022-12-18T14:06:58;0.10;99.90
10149;DHT22;5115;50.920;6.376;2022-12-18T14:09:29;0.00;99.90
10149;DHT22;5115;50.920;6.376;2022-12-18T14:11:56;0.00;99.90
10149;DHT22;5115;50.920;6.376;2022-12-18T14:14:45;0.00;99.90
10149;DHT22;5115;50.920;6.376;2022-12-18T14:17:13;0.00;99.90
10149;DHT22;5115;50.920;6.376;2022-12-18T14:19:48;0.00;99.90
10149;DHT22;5115;50.920;6.376;2022-12-18T14:22:21;0.00;99.90
10149;DHT22;5115;50.920;6.376;2022-12-18T14:24:47;0.10;99.90
10149;DHT22;5115;50.920;6.376;2022-12-18T14:27:29;0.10;99.90
10149;DHT22;5115;50.920;6.376;2022-12-18T14:29:55;0.10;99.90
10149;DHT22;5115;50.920;6.376;2022-12-18T14:32:21;0.00;99.90
10149;DHT22;5115;50.920;6.376;2022-12-18T14:34:55;0.00;99.90
10149;DHT22;5115;50.920;6.376;2022-12-18T14:37:23;0.10;99.90
10149;DHT22;5115;50.920;6.376;2022-12-18T14:39:57;0.00;99.90
10149;DHT22;5115;50.920;6.376;2022-12-18T14:42:23;0.10;99.90
10149;DHT22;5115;50.920;6.376;2022-12-18T14:47:58;-0.10;99.90
10149;DHT22;5115;50.920;6.376;2022-12-18T14:50:23;0.00;99.90
10149;DHT22;5115;50.920;6.376;2022-12-18T14:52:49;0.00;99.90
10149;DHT22;5115;50.920;6.376;2022-12-18T14:55:19;0.70;99.90
10149;DHT22;5115;50.920;6.376;2022-12-18T14:57:50;-0.10;99.90
10149;DHT22;5115;50.920;6.376;2022-12-18T15:00:19;-0.10;99.90
10149;DHT22;5115;50.920;6.376;2022-12-18T15:02:47;-0.20;99.90
10149;DHT22;5115;50.920;6.376;2022-12-18T15:05:26;-0.20;99.90
10149;DHT22;5115;50.920;6.376;2022-12-18T15:07:57;-0.10;99.90
10149;DHT22;5115;50.920;6.376;2022-12-18T15:10:29;0.00;99.90
10149;DHT22;5115;50.920;6.376;2022-12-18T15:18:00;-0.20;99.90
10149;DHT22;5115;50.920;6.376;2022-12-18T15:20:25;-0.20;99.90
10149;DHT22;5115;50.920;6.376;2022-12-18T15:22:51;-0.20;99.90
10149;DHT22;5115;50.920;6.376;2022-12-18T15:25:31;-0.20;99.90
10149;DHT22;5115;50.920;6.376;2022-12-18T15:27:57;-0.20;99.90
10149;DHT22;5115;50.920;6.376;2022-12-18T15:30:24;-0.20;99.90
10149;DHT22;5115;50.920;6.376;2022-12-18T15:32:51;-0.30;99.90
10149;DHT22;5115;50.920;6.376;2022-12-18T15:35:20;-0.30;99.90
10149;DHT22;5115;50.920;6.376;2022-12-18T15:37:46;-0.20;99.90
10149;DHT22;5115;50.920;6.376;2022-12-18T15:40:14;0.80;99.90
10149;DHT22;5115;50.920;6.376;2022-12-18T15:42:40;-0.30;99.90
10149;DHT22;5115;50.920;6.376;2022-12-18T15:45:24;-0.40;99.90
10149;DHT22;5115;50.920;6.376;2022-12-18T15:47:50;-0.40;99.90
10149;DHT22;5115;50.920;6.376;2022-12-18T15:50:15;-0.40;99.90
10149;DHT22;5115;50.920;6.376;2022-12-18T15:52:43;-0.50;99.90
10149;DHT22;5115;50.920;6.376;2022-12-18T15:55:20;-0.50;99.90
10149;DHT22;5115;50.920;6.376;2022-12-18T15:58:06;-0.60;99.90
10149;DHT22;5115;50.920;6.376;2022-12-18T16:00:33;-0.60;99.90
10149;DHT22;5115;50.920;6.376;2022-12-18T16:02:59;-0.60;99.90
10149;DHT22;5115;50.920;6.376;2022-12-18T16:05:24;-0.70;99.90
10149;DHT22;5115;50.920;6.376;2022-12-18T16:07:51;-0.70;99.90
10149;DHT22;5115;50.920;6.376;2022-12-18T16:10:17;-0.60;99.90
10149;DHT22;5115;50.920;6.376;2022-12-18T16:12:43;-0.60;99.90
10149;DHT22;5115;50.920;6.376;2022-12-18T16:15:11;-0.60;99.90
10149;DHT22;5115;50.920;6.376;2022-12-18T16:17:39;-0.60;99.90
10149;DHT22;5115;50.920;6.376;2022-12-18T16:20:06;-0.60;99.90
10149;DHT22;5115;50.920;6.376;2022-12-18T16:22:31;-0.60;99.90
10149;DHT22;5115;50.920;6.376;2022-12-18T16:24:57;-0.60;99.90
10149;DHT22;5115;50.920;6.376;2022-12-18T16:27:23;-0.50;99.90
10149;DHT22;5115;50.920;6.376;2022-12-18T16:29:50;-0.40;99.90
10149;DHT22;5115;50.920;6.376;2022-12-18T16:32:20;-0.50;99.90
10149;DHT22;5115;50.920;6.376;2022-12-18T16:34:46;-0.60;99.90
10149;DHT22;5115;50.920;6.376;2022-12-18T16:37:13;-0.50;99.90
10149;DHT22;5115;50.920;6.376;2022-12-18T16:39:41;-0.50;99.90
10149;DHT22;5115;50.920;6.376;2022-12-18T16:42:11;-0.50;99.90
10149;DHT22;5115;50.920;6.376;2022-12-18T16:44:40;-0.50;99.90
10149;DHT22;5115;50.920;6.376;2022-12-18T16:47:05;-0.50;99.90
10149;DHT22;5115;50.920;6.376;2022-12-18T16:49:31;-0.50;99.90
10149;DHT22;5115;50.920;6.376;2022-12-18T16:51:56;-0.60;99.90
10149;DHT22;5115;50.920;6.376;2022-12-18T16:54:22;-0.60;99.90
10149;DHT22;5115;50.920;6.376;2022-12-18T16:56:50;-0.50;99.90
10149;DHT22;5115;50.920;6.376;2022-12-18T16:59:16;-0.60;99.90
10149;DHT22;5115;50.920;6.376;2022-12-18T17:01:41;-0.60;99.90
10149;DHT22;5115;50.920;6.376;2022-12-18T17:04:08;-0.50;99.90
10149;DHT22;5115;50.920;6.376;2022-12-18T17:06:35;-0.50;99.90
10149;DHT22;5115;50.920;6.376;2022-12-18T17:09:05;-0.40;99.90
10149;DHT22;5115;50.920;6.376;2022-12-18T17:11:33;-0.50;99.90
10149;DHT22;5115;50.920;6.376;2022-12-18T17:14:04;-0.40;99.90
10149;DHT22;5115;50.920;6.376;2022-12-18T17:16:30;-0.30;99.90
10149;DHT22;5115;50.920;6.376;2022-12-18T17:18:55;-0.30;99.90
10149;DHT22;5115;50.920;6.376;2022-12-18T17:21:21;-0.50;99.90
10149;DHT22;5115;50.920;6.376;2022-12-18T17:23:46;-0.40;99.90
10149;DHT22;5115;50.920;6.376;2022-12-18T17:26:12;-0.50;99.90
10149;DHT22;5115;50.920;6.376;2022-12-18T17:28:39;-0.40;99.90
10149;DHT22;5115;50.920;6.376;2022-12-18T17:31:14;-0.40;99.90
10149;DHT22;5115;50.920;6.376;2022-12-18T17:33:40;-0.50;99.90
10149;DHT22;5115;50.920;6.376;2022-12-18T17:36:06;-0.50;99.90
10149;DHT22;5115;50.920;6.376;2022-12-18T17:38:32;-0.50;99.90